sensor_id;sensor_type;location;lat;lon;timestamp;P1;durP1;ratioP1;P2;durP2;ratioP2
22967;SDS011;11650;48.106;-1.696;2022-09-25T00:00:21;6.47;;;1.90;;
22967;SDS011;11650;48.106;-1.696;2022-09-25T00:02:48;10.87;;;2.67;;
22967;SDS011;11650;48.106;-1.696;2022-09-25T00:05:13;6.30;;;1.90;;
22967;SDS011;11650;48.106;-1.696;2022-09-25T00:07:39;5.87;;;2.07;;
22967;SDS011;11650;48.106;-1.696;2022-09-25T00:10:06;7.90;;;1.97;;
22967;SDS011;11650;48.106;-1.696;2022-09-25T00:12:32;10.10;;;2.03;;
22967;SDS011;11650;48.106;-1.696;2022-09-25T00:14:57;8.03;;;2.30;;
22967;SDS011;11650;48.106;-1.696;2022-09-25T00:17:23;5.87;;;2.00;;
22967;SDS011;11650;48.106;-1.696;2022-09-25T00:19:49;6.07;;;1.77;;
22967;SDS011;11650;48.106;-1.696;2022-09-25T00:22:19;5.50;;;1.60;;
22967;SDS011;11650;48.106;-1.696;2022-09-25T00:24:47;6.87;;;2.10;;
22967;SDS011;11650;48.106;-1.696;2022-09-25T00:27:13;8.27;;;2.20;;
22967;SDS011;11650;48.106;-1.696;2022-09-25T00:29:40;6.10;;;1.70;;
22967;SDS011;11650;48.106;-1.696;2022-09-25T00:32:06;6.90;;;2.00;;
22967;SDS011;11650;48.106;-1.696;2022-09-25T00:34:33;10.23;;;2.20;;
22967;SDS011;11650;48.106;-1.696;2022-09-25T00:36:59;8.50;;;1.97;;
22967;SDS011;11650;48.106;-1.696;2022-09-25T00:39:24;4.60;;;1.90;;
22967;SDS011;11650;48.106;-1.696;2022-09-25T00:41:51;5.57;;;1.83;;
22967;SDS011;11650;48.106;-1.696;2022-09-25T00:47:11;6.40;;;2.10;;
22967;SDS011;11650;48.106;-1.696;2022-09-25T00:49:41;3.83;;;1.53;;
22967;SDS011;11650;48.106;-1.696;2022-09-25T00:52:09;5.27;;;1.90;;
22967;SDS011;11650;48.106;-1.696;2022-09-25T00:54:50;5.97;;;1.70;;
22967;SDS011;11650;48.106;-1.696;2022-09-25T00:57:24;8.00;;;1.87;;
22967;SDS011;11650;48.106;-1.696;2022-09-25T00:59:55;6.07;;;1.83;;
22967;SDS011;11650;48.106;-1.696;2022-09-25T01:02:24;11.27;;;1.80;;
22967;SDS011;11650;48.106;-1.696;2022-09-25T01:04:56;5.47;;;1.63;;
22967;SDS011;11650;48.106;-1.696;2022-09-25T01:07:28;9.27;;;2.07;;
22967;SDS011;11650;48.106;-1.696;2022-09-25T01:09:56;4.73;;;1.40;;
22967;SDS011;11650;48.106;-1.696;2022-09-25T01:12:23;7.87;;;1.70;;
22967;SDS011;11650;48.106;-1.696;2022-09-25T01:14:49;7.33;;;1.90;;
22967;SDS011;11650;48.106;-1.696;2022-09-25T01:17:19;4.37;;;1.67;;
22967;SDS011;11650;48.106;-1.696;2022-09-25T01:25:33;4.73;;;1.80;;
22967;SDS011;11650;48.106;-1.696;2022-09-25T01:31:11;6.23;;;1.63;;
22967;SDS011;11650;48.106;-1.696;2022-09-25T01:34:01;7.33;;;2.13;;
22967;SDS011;11650;48.106;-1.696;2022-09-25T01:36:36;4.83;;;1.70;;
22967;SDS011;11650;48.106;-1.696;2022-09-25T01:41:53;5.67;;;2.03;;
22967;SDS011;11650;48.106;-1.696;2022-09-25T01:46:49;5.30;;;2.00;;
22967;SDS011;11650;48.106;-1.696;2022-09-25T01:51:49;6.67;;;2.47;;
22967;SDS011;11650;48.106;-1.696;2022-09-25T01:54:25;7.53;;;2.50;;
22967;SDS011;11650;48.106;-1.696;2022-09-25T01:57:08;9.60;;;2.83;;
22967;SDS011;11650;48.106;-1.696;2022-09-25T01:59:39;9.00;;;2.63;;
22967;SDS011;11650;48.106;-1.696;2022-09-25T02:02:10;4.93;;;2.40;;
22967;SDS011;11650;48.106;-1.696;2022-09-25T02:04:39;7.07;;;2.57;;
22967;SDS011;11650;48.106;-1.696;2022-09-25T02:07:09;5.47;;;2.60;;
22967;SDS011;11650;48.106;-1.696;2022-09-25T02:09:44;9.03;;;3.03;;
22967;SDS011;11650;48.106;-1.696;2022-09-25T02:12:35;7.93;;;3.00;;
22967;SDS011;11650;48.106;-1.696;2022-09-25T02:15:14;6.30;;;2.77;;
22967;SDS011;11650;48.106;-1.696;2022-09-25T02:17:51;6.77;;;3.03;;
22967;SDS011;11650;48.106;-1.696;2022-09-25T02:20:39;7.03;;;2.67;;
22967;SDS011;11650;48.106;-1.696;2022-09-25T02:25:42;9.10;;;3.27;;
22967;SDS011;11650;48.106;-1.696;2022-09-25T02:28:11;8.10;;;3.10;;
22967;SDS011;11650;48.106;-1.696;2022-09-25T02:30:37;6.63;;;2.57;;
22967;SDS011;11650;48.106;-1.696;2022-09-25T02:33:02;6.40;;;2.90;;
22967;SDS011;11650;48.106;-1.696;2022-09-25T02:35:28;8.67;;;2.83;;
22967;SDS011;11650;48.106;-1.696;2022-09-25T02:37:54;5.00;;;2.50;;
22967;SDS011;11650;48.106;-1.696;2022-09-25T02:40:23;10.77;;;3.03;;
22967;SDS011;11650;48.106;-1.696;2022-09-25T02:43:15;8.13;;;3.07;;
22967;SDS011;11650;48.106;-1.696;2022-09-25T02:46:09;7.50;;;3.23;;
22967;SDS011;11650;48.106;-1.696;2022-09-25T02:48:49;6.17;;;3.20;;
22967;SDS011;11650;48.106;-1.696;2022-09-25T02:51:50;10.80;;;3.83;;
22967;SDS011;11650;48.106;-1.696;2022-09-25T02:54:38;6.77;;;2.90;;
22967;SDS011;11650;48.106;-1.696;2022-09-25T02:59:40;8.27;;;3.10;;
22967;SDS011;11650;48.106;-1.696;2022-09-25T03:02:12;5.53;;;3.10;;
22967;SDS011;11650;48.106;-1.696;2022-09-25T03:04:40;7.13;;;3.13;;
22967;SDS011;11650;48.106;-1.696;2022-09-25T03:07:08;6.47;;;3.30;;
22967;SDS011;11650;48.106;-1.696;2022-09-25T03:09:34;7.53;;;3.37;;
22967;SDS011;11650;48.106;-1.696;2022-09-25T03:12:02;6.40;;;3.50;;
22967;SDS011;11650;48.106;-1.696;2022-09-25T03:14:29;10.33;;;3.77;;
22967;SDS011;11650;48.106;-1.696;2022-09-25T03:16:55;8.57;;;3.27;;
22967;SDS011;11650;48.106;-1.696;2022-09-25T03:19:24;5.30;;;2.90;;
22967;SDS011;11650;48.106;-1.696;2022-09-25T03:21:52;6.33;;;3.00;;
22967;SDS011;11650;48.106;-1.696;2022-09-25T03:24:18;8.80;;;3.43;;
22967;SDS011;11650;48.106;-1.696;2022-09-25T03:26:44;8.97;;;3.27;;
22967;SDS011;11650;48.106;-1.696;2022-09-25T03:29:13;5.60;;;3.00;;
22967;SDS011;11650;48.106;-1.696;2022-09-25T03:31:41;6.83;;;3.33;;
22967;SDS011;11650;48.106;-1.696;2022-09-25T03:34:07;5.80;;;2.97;;
22967;SDS011;11650;48.106;-1.696;2022-09-25T03:36:33;6.73;;;3.17;;
22967;SDS011;11650;48.106;-1.696;2022-09-25T03:39:00;8.70;;;2.80;;
22967;SDS011;11650;48.106;-1.696;2022-09-25T03:41:27;11.97;;;3.03;;
22967;SDS011;11650;48.106;-1.696;2022-09-25T03:43:55;6.90;;;2.70;;
22967;SDS011;11650;48.106;-1.696;2022-09-25T03:46:25;5.07;;;3.03;;
22967;SDS011;11650;48.106;-1.696;2022-09-25T03:48:55;7.67;;;2.80;;
22967;SDS011;11650;48.106;-1.696;2022-09-25T03:51:22;7.03;;;2.90;;
22967;SDS011;11650;48.106;-1.696;2022-09-25T03:53:49;8.07;;;2.90;;
22967;SDS011;11650;48.106;-1.696;2022-09-25T03:56:17;7.43;;;3.03;;
22967;SDS011;11650;48.106;-1.696;2022-09-25T03:58:45;7.80;;;2.80;;
22967;SDS011;11650;48.106;-1.696;2022-09-25T04:01:12;7.70;;;2.67;;
22967;SDS011;11650;48.106;-1.696;2022-09-25T04:03:38;8.60;;;2.60;;
22967;SDS011;11650;48.106;-1.696;2022-09-25T04:06:05;8.50;;;2.70;;
22967;SDS011;11650;48.106;-1.696;2022-09-25T04:08:32;7.10;;;2.50;;
22967;SDS011;11650;48.106;-1.696;2022-09-25T04:10:59;6.97;;;2.60;;
22967;SDS011;11650;48.106;-1.696;2022-09-25T04:13:27;4.47;;;2.10;;
22967;SDS011;11650;48.106;-1.696;2022-09-25T04:15:58;6.03;;;2.17;;
22967;SDS011;11650;48.106;-1.696;2022-09-25T04:18:25;5.03;;;1.80;;
22967;SDS011;11650;48.106;-1.696;2022-09-25T04:20:56;7.50;;;2.10;;
22967;SDS011;11650;48.106;-1.696;2022-09-25T04:23:23;7.93;;;2.37;;
22967;SDS011;11650;48.106;-1.696;2022-09-25T04:25:48;8.27;;;2.30;;
22967;SDS011;11650;48.106;-1.696;2022-09-25T04:28:14;10.17;;;2.50;;
22967;SDS011;11650;48.106;-1.696;2022-09-25T04:30:40;9.83;;;2.20;;
22967;SDS011;11650;48.106;-1.696;2022-09-25T04:33:05;7.80;;;2.20;;
22967;SDS011;11650;48.106;-1.696;2022-09-25T04:35:49;6.87;;;2.20;;
22967;SDS011;11650;48.106;-1.696;2022-09-25T04:38:15;7.07;;;2.13;;
22967;SDS011;11650;48.106;-1.696;2022-09-25T04:40:41;7.17;;;2.40;;
22967;SDS011;11650;48.106;-1.696;2022-09-25T04:43:06;7.47;;;2.30;;
22967;SDS011;11650;48.106;-1.696;2022-09-25T04:45:33;6.67;;;2.33;;
22967;SDS011;11650;48.106;-1.696;2022-09-25T04:48:00;7.03;;;2.30;;
22967;SDS011;11650;48.106;-1.696;2022-09-25T04:50:27;6.17;;;2.50;;
22967;SDS011;11650;48.106;-1.696;2022-09-25T04:52:55;7.97;;;2.40;;
22967;SDS011;11650;48.106;-1.696;2022-09-25T04:55:21;7.93;;;2.37;;
22967;SDS011;11650;48.106;-1.696;2022-09-25T04:57:51;6.33;;;2.33;;
22967;SDS011;11650;48.106;-1.696;2022-09-25T05:00:17;7.73;;;2.33;;
22967;SDS011;11650;48.106;-1.696;2022-09-25T05:02:44;10.30;;;2.30;;
22967;SDS011;11650;48.106;-1.696;2022-09-25T05:05:11;6.13;;;2.30;;
22967;SDS011;11650;48.106;-1.696;2022-09-25T05:07:36;5.93;;;2.30;;
22967;SDS011;11650;48.106;-1.696;2022-09-25T05:10:04;6.80;;;2.40;;
22967;SDS011;11650;48.106;-1.696;2022-09-25T05:12:30;3.77;;;1.90;;
22967;SDS011;11650;48.106;-1.696;2022-09-25T05:14:56;6.43;;;2.50;;
22967;SDS011;11650;48.106;-1.696;2022-09-25T05:17:21;5.03;;;2.60;;
22967;SDS011;11650;48.106;-1.696;2022-09-25T05:19:47;5.50;;;2.43;;
22967;SDS011;11650;48.106;-1.696;2022-09-25T05:22:13;8.23;;;2.63;;
22967;SDS011;11650;48.106;-1.696;2022-09-25T05:24:39;9.67;;;2.50;;
22967;SDS011;11650;48.106;-1.696;2022-09-25T05:27:04;7.83;;;2.30;;
22967;SDS011;11650;48.106;-1.696;2022-09-25T05:29:31;10.97;;;2.27;;
22967;SDS011;11650;48.106;-1.696;2022-09-25T05:31:56;6.67;;;2.47;;
22967;SDS011;11650;48.106;-1.696;2022-09-25T05:34:22;5.07;;;2.07;;
22967;SDS011;11650;48.106;-1.696;2022-09-25T05:36:47;6.20;;;2.30;;
22967;SDS011;11650;48.106;-1.696;2022-09-25T05:39:13;10.20;;;2.30;;
22967;SDS011;11650;48.106;-1.696;2022-09-25T05:41:39;10.37;;;2.83;;
22967;SDS011;11650;48.106;-1.696;2022-09-25T05:44:04;5.67;;;2.00;;
22967;SDS011;11650;48.106;-1.696;2022-09-25T05:46:33;8.83;;;2.60;;
22967;SDS011;11650;48.106;-1.696;2022-09-25T05:49:08;7.53;;;2.20;;
22967;SDS011;11650;48.106;-1.696;2022-09-25T05:51:33;7.37;;;2.50;;
22967;SDS011;11650;48.106;-1.696;2022-09-25T05:53:59;8.63;;;2.30;;
22967;SDS011;11650;48.106;-1.696;2022-09-25T05:56:24;8.67;;;2.40;;
22967;SDS011;11650;48.106;-1.696;2022-09-25T05:58:51;8.20;;;2.17;;
22967;SDS011;11650;48.106;-1.696;2022-09-25T06:01:17;6.27;;;2.43;;
22967;SDS011;11650;48.106;-1.696;2022-09-25T06:03:43;9.70;;;2.63;;
22967;SDS011;11650;48.106;-1.696;2022-09-25T06:06:08;8.13;;;2.70;;
22967;SDS011;11650;48.106;-1.696;2022-09-25T06:08:34;9.53;;;2.40;;
22967;SDS011;11650;48.106;-1.696;2022-09-25T06:11:00;10.60;;;2.47;;
22967;SDS011;11650;48.106;-1.696;2022-09-25T06:13:27;8.23;;;2.50;;
22967;SDS011;11650;48.106;-1.696;2022-09-25T06:15:56;5.73;;;2.20;;
22967;SDS011;11650;48.106;-1.696;2022-09-25T06:18:22;6.00;;;2.30;;
22967;SDS011;11650;48.106;-1.696;2022-09-25T06:20:48;9.63;;;2.50;;
22967;SDS011;11650;48.106;-1.696;2022-09-25T06:23:14;7.27;;;2.77;;
22967;SDS011;11650;48.106;-1.696;2022-09-25T06:25:41;7.03;;;2.30;;
22967;SDS011;11650;48.106;-1.696;2022-09-25T06:28:07;5.97;;;2.10;;
22967;SDS011;11650;48.106;-1.696;2022-09-25T06:30:35;8.13;;;2.50;;
22967;SDS011;11650;48.106;-1.696;2022-09-25T06:33:02;6.17;;;2.23;;
22967;SDS011;11650;48.106;-1.696;2022-09-25T06:35:44;8.43;;;2.73;;
22967;SDS011;11650;48.106;-1.696;2022-09-25T06:38:12;8.57;;;2.17;;
22967;SDS011;11650;48.106;-1.696;2022-09-25T06:40:40;8.77;;;2.20;;
22967;SDS011;11650;48.106;-1.696;2022-09-25T06:43:08;6.40;;;2.43;;
22967;SDS011;11650;48.106;-1.696;2022-09-25T06:45:35;7.90;;;2.40;;
22967;SDS011;11650;48.106;-1.696;2022-09-25T06:48:06;6.27;;;2.07;;
22967;SDS011;11650;48.106;-1.696;2022-09-25T06:50:49;7.83;;;2.13;;
22967;SDS011;11650;48.106;-1.696;2022-09-25T06:53:17;8.47;;;2.43;;
22967;SDS011;11650;48.106;-1.696;2022-09-25T06:55:44;7.00;;;2.20;;
22967;SDS011;11650;48.106;-1.696;2022-09-25T06:58:11;13.10;;;2.60;;
22967;SDS011;11650;48.106;-1.696;2022-09-25T07:00:39;6.20;;;2.40;;
22967;SDS011;11650;48.106;-1.696;2022-09-25T07:03:05;7.90;;;2.20;;
22967;SDS011;11650;48.106;-1.696;2022-09-25T07:05:49;7.03;;;2.00;;
22967;SDS011;11650;48.106;-1.696;2022-09-25T07:08:16;15.70;;;2.40;;
22967;SDS011;11650;48.106;-1.696;2022-09-25T07:10:48;8.67;;;2.40;;
22967;SDS011;11650;48.106;-1.696;2022-09-25T07:13:15;8.00;;;2.10;;
22967;SDS011;11650;48.106;-1.696;2022-09-25T07:15:42;9.00;;;2.23;;
22967;SDS011;11650;48.106;-1.696;2022-09-25T08:09:22;9.83;;;2.43;;
22967;SDS011;11650;48.106;-1.696;2022-09-25T08:11:47;11.27;;;2.60;;
22967;SDS011;11650;48.106;-1.696;2022-09-25T08:14:13;8.13;;;1.93;;
22967;SDS011;11650;48.106;-1.696;2022-09-25T08:16:39;11.53;;;2.33;;
22967;SDS011;11650;48.106;-1.696;2022-09-25T08:19:06;8.00;;;1.83;;
22967;SDS011;11650;48.106;-1.696;2022-09-25T08:21:32;10.70;;;2.10;;
22967;SDS011;11650;48.106;-1.696;2022-09-25T08:23:58;8.63;;;1.87;;
22967;SDS011;11650;48.106;-1.696;2022-09-25T08:26:25;7.00;;;2.30;;
22967;SDS011;11650;48.106;-1.696;2022-09-25T08:28:53;8.37;;;2.40;;
22967;SDS011;11650;48.106;-1.696;2022-09-25T08:31:18;7.47;;;2.00;;
22967;SDS011;11650;48.106;-1.696;2022-09-25T08:33:44;7.70;;;2.17;;
22967;SDS011;11650;48.106;-1.696;2022-09-25T08:36:11;8.60;;;2.00;;
22967;SDS011;11650;48.106;-1.696;2022-09-25T08:38:37;8.70;;;1.80;;
22967;SDS011;11650;48.106;-1.696;2022-09-25T08:46:44;6.83;;;1.87;;
22967;SDS011;11650;48.106;-1.696;2022-09-25T08:49:42;6.43;;;1.40;;
22967;SDS011;11650;48.106;-1.696;2022-09-25T08:52:16;8.73;;;1.57;;
22967;SDS011;11650;48.106;-1.696;2022-09-25T08:54:44;7.87;;;1.33;;
22967;SDS011;11650;48.106;-1.696;2022-09-25T08:57:15;6.93;;;1.40;;
22967;SDS011;11650;48.106;-1.696;2022-09-25T08:59:51;5.37;;;1.60;;
22967;SDS011;11650;48.106;-1.696;2022-09-25T09:02:23;7.07;;;1.47;;
22967;SDS011;11650;48.106;-1.696;2022-09-25T09:04:57;8.80;;;1.47;;
22967;SDS011;11650;48.106;-1.696;2022-09-25T09:07:28;4.77;;;1.10;;
22967;SDS011;11650;48.106;-1.696;2022-09-25T09:12:50;6.33;;;1.53;;
22967;SDS011;11650;48.106;-1.696;2022-09-25T09:18:22;9.07;;;1.67;;
22967;SDS011;11650;48.106;-1.696;2022-09-25T09:20:52;6.30;;;1.37;;
22967;SDS011;11650;48.106;-1.696;2022-09-25T09:23:20;4.53;;;1.57;;
22967;SDS011;11650;48.106;-1.696;2022-09-25T09:25:59;7.03;;;1.50;;
22967;SDS011;11650;48.106;-1.696;2022-09-25T09:36:48;5.53;;;1.30;;
22967;SDS011;11650;48.106;-1.696;2022-09-25T09:39:26;5.87;;;1.40;;
22967;SDS011;11650;48.106;-1.696;2022-09-25T09:47:40;5.93;;;1.43;;
22967;SDS011;11650;48.106;-1.696;2022-09-25T09:50:16;7.13;;;1.60;;
22967;SDS011;11650;48.106;-1.696;2022-09-25T09:53:02;5.73;;;1.33;;
22967;SDS011;11650;48.106;-1.696;2022-09-25T09:55:41;7.57;;;1.70;;
22967;SDS011;11650;48.106;-1.696;2022-09-25T09:58:58;6.60;;;1.27;;
22967;SDS011;11650;48.106;-1.696;2022-09-25T10:01:10;9.57;;;1.77;;
22967;SDS011;11650;48.106;-1.696;2022-09-25T10:03:38;7.10;;;1.80;;
22967;SDS011;11650;48.106;-1.696;2022-09-25T10:06:09;6.37;;;1.40;;
22967;SDS011;11650;48.106;-1.696;2022-09-25T10:08:37;6.63;;;1.60;;
22967;SDS011;11650;48.106;-1.696;2022-09-25T10:11:14;7.83;;;2.10;;
22967;SDS011;11650;48.106;-1.696;2022-09-25T10:13:42;5.80;;;1.63;;
22967;SDS011;11650;48.106;-1.696;2022-09-25T10:16:17;7.53;;;1.50;;
22967;SDS011;11650;48.106;-1.696;2022-09-25T10:19:20;9.50;;;1.70;;
22967;SDS011;11650;48.106;-1.696;2022-09-25T10:21:59;4.63;;;1.50;;
22967;SDS011;11650;48.106;-1.696;2022-09-25T10:27:21;6.07;;;1.70;;
22967;SDS011;11650;48.106;-1.696;2022-09-25T10:30:19;6.30;;;1.30;;
22967;SDS011;11650;48.106;-1.696;2022-09-25T10:35:15;8.50;;;1.60;;
22967;SDS011;11650;48.106;-1.696;2022-09-25T10:37:52;6.67;;;1.47;;
22967;SDS011;11650;48.106;-1.696;2022-09-25T10:40:30;6.23;;;1.60;;
22967;SDS011;11650;48.106;-1.696;2022-09-25T10:43:18;4.33;;;1.50;;
22967;SDS011;11650;48.106;-1.696;2022-09-25T10:45:47;4.70;;;1.57;;
22967;SDS011;11650;48.106;-1.696;2022-09-25T10:48:26;5.97;;;1.57;;
22967;SDS011;11650;48.106;-1.696;2022-09-25T10:51:18;4.77;;;1.20;;
22967;SDS011;11650;48.106;-1.696;2022-09-25T10:54:18;4.87;;;1.30;;
22967;SDS011;11650;48.106;-1.696;2022-09-25T10:56:39;4.07;;;1.50;;
22967;SDS011;11650;48.106;-1.696;2022-09-25T10:59:12;5.50;;;1.80;;
22967;SDS011;11650;48.106;-1.696;2022-09-25T11:01:42;5.43;;;1.40;;
22967;SDS011;11650;48.106;-1.696;2022-09-25T11:04:27;4.67;;;1.30;;
22967;SDS011;11650;48.106;-1.696;2022-09-25T11:06:56;5.57;;;1.40;;
22967;SDS011;11650;48.106;-1.696;2022-09-25T11:09:26;7.67;;;1.30;;
22967;SDS011;11650;48.106;-1.696;2022-09-25T11:12:04;3.70;;;1.30;;
22967;SDS011;11650;48.106;-1.696;2022-09-25T11:14:46;4.87;;;1.30;;
22967;SDS011;11650;48.106;-1.696;2022-09-25T11:17:37;4.37;;;1.33;;
22967;SDS011;11650;48.106;-1.696;2022-09-25T11:22:43;5.07;;;1.40;;
22967;SDS011;11650;48.106;-1.696;2022-09-25T11:27:57;6.07;;;1.20;;
22967;SDS011;11650;48.106;-1.696;2022-09-25T11:30:39;4.73;;;1.30;;
22967;SDS011;11650;48.106;-1.696;2022-09-25T11:33:15;4.33;;;1.30;;
22967;SDS011;11650;48.106;-1.696;2022-09-25T11:35:57;3.73;;;1.03;;
22967;SDS011;11650;48.106;-1.696;2022-09-25T11:44:27;7.93;;;1.50;;
22967;SDS011;11650;48.106;-1.696;2022-09-25T11:47:17;7.70;;;1.37;;
22967;SDS011;11650;48.106;-1.696;2022-09-25T11:49:50;5.77;;;1.60;;
22967;SDS011;11650;48.106;-1.696;2022-09-25T12:08:47;3.70;;;1.20;;
22967;SDS011;11650;48.106;-1.696;2022-09-25T12:17:00;4.10;;;1.13;;
22967;SDS011;11650;48.106;-1.696;2022-09-25T12:38:11;2.47;;;1.10;;
22967;SDS011;11650;48.106;-1.696;2022-09-25T12:40:49;3.33;;;1.20;;
22967;SDS011;11650;48.106;-1.696;2022-09-25T12:45:51;2.60;;;0.83;;
22967;SDS011;11650;48.106;-1.696;2022-09-25T12:48:42;3.73;;;0.97;;
22967;SDS011;11650;48.106;-1.696;2022-09-25T12:56:57;4.97;;;1.20;;
22967;SDS011;11650;48.106;-1.696;2022-09-25T12:59:31;4.17;;;1.13;;
22967;SDS011;11650;48.106;-1.696;2022-09-25T13:10:41;4.10;;;1.07;;
22967;SDS011;11650;48.106;-1.696;2022-09-25T13:13:25;5.13;;;1.40;;
22967;SDS011;11650;48.106;-1.696;2022-09-25T13:15:56;4.33;;;0.90;;
22967;SDS011;11650;48.106;-1.696;2022-09-25T13:18:25;3.20;;;1.10;;
22967;SDS011;11650;48.106;-1.696;2022-09-25T13:20:56;3.63;;;1.27;;
22967;SDS011;11650;48.106;-1.696;2022-09-25T13:23:27;4.00;;;1.10;;
22967;SDS011;11650;48.106;-1.696;2022-09-25T13:25:56;8.30;;;1.27;;
22967;SDS011;11650;48.106;-1.696;2022-09-25T13:28:33;6.30;;;1.60;;
22967;SDS011;11650;48.106;-1.696;2022-09-25T13:31:11;5.07;;;1.30;;
22967;SDS011;11650;48.106;-1.696;2022-09-25T13:39:35;9.00;;;1.57;;
22967;SDS011;11650;48.106;-1.696;2022-09-25T13:42:25;5.60;;;1.10;;
22967;SDS011;11650;48.106;-1.696;2022-09-25T13:45:00;9.57;;;1.30;;
22967;SDS011;11650;48.106;-1.696;2022-09-25T13:55:14;6.23;;;1.90;;
22967;SDS011;11650;48.106;-1.696;2022-09-25T14:00:50;4.57;;;1.30;;
22967;SDS011;11650;48.106;-1.696;2022-09-25T14:08:56;4.63;;;1.23;;
22967;SDS011;11650;48.106;-1.696;2022-09-25T14:11:25;5.77;;;1.17;;
22967;SDS011;11650;48.106;-1.696;2022-09-25T14:13:55;7.43;;;1.27;;
22967;SDS011;11650;48.106;-1.696;2022-09-25T14:18:55;6.47;;;1.50;;
22967;SDS011;11650;48.106;-1.696;2022-09-25T14:21:23;9.10;;;1.67;;
22967;SDS011;11650;48.106;-1.696;2022-09-25T14:23:54;7.87;;;1.20;;
22967;SDS011;11650;48.106;-1.696;2022-09-25T14:26:22;6.23;;;1.40;;
22967;SDS011;11650;48.106;-1.696;2022-09-25T14:28:50;3.93;;;1.20;;
22967;SDS011;11650;48.106;-1.696;2022-09-25T14:37:11;3.47;;;1.23;;
22967;SDS011;11650;48.106;-1.696;2022-09-25T14:48:09;2.77;;;1.10;;
22967;SDS011;11650;48.106;-1.696;2022-09-25T14:50:42;4.13;;;1.20;;
22967;SDS011;11650;48.106;-1.696;2022-09-25T14:53:34;1.33;;;0.70;;
22967;SDS011;11650;48.106;-1.696;2022-09-25T14:56:10;1.83;;;0.80;;
22967;SDS011;11650;48.106;-1.696;2022-09-25T14:58:43;2.47;;;0.90;;
22967;SDS011;11650;48.106;-1.696;2022-09-25T15:01:24;4.57;;;1.00;;
22967;SDS011;11650;48.106;-1.696;2022-09-25T15:03:53;4.30;;;0.80;;
22967;SDS011;11650;48.106;-1.696;2022-09-25T15:06:29;3.27;;;1.17;;
22967;SDS011;11650;48.106;-1.696;2022-09-25T15:08:59;5.93;;;1.10;;
22967;SDS011;11650;48.106;-1.696;2022-09-25T15:11:36;3.00;;;0.90;;
22967;SDS011;11650;48.106;-1.696;2022-09-25T15:14:15;3.03;;;1.00;;
22967;SDS011;11650;48.106;-1.696;2022-09-25T15:16:43;3.00;;;0.77;;
22967;SDS011;11650;48.106;-1.696;2022-09-25T15:19:40;4.47;;;0.90;;
22967;SDS011;11650;48.106;-1.696;2022-09-25T15:22:10;4.70;;;0.90;;
22967;SDS011;11650;48.106;-1.696;2022-09-25T15:24:48;2.93;;;1.00;;
22967;SDS011;11650;48.106;-1.696;2022-09-25T15:27:20;5.23;;;0.90;;
22967;SDS011;11650;48.106;-1.696;2022-09-25T15:29:46;4.83;;;0.93;;
22967;SDS011;11650;48.106;-1.696;2022-09-25T15:32:15;3.67;;;1.03;;
22967;SDS011;11650;48.106;-1.696;2022-09-25T15:34:47;2.53;;;1.20;;
22967;SDS011;11650;48.106;-1.696;2022-09-25T15:37:25;6.53;;;1.10;;
22967;SDS011;11650;48.106;-1.696;2022-09-25T16:08:26;4.15;;;1.15;;
22967;SDS011;11650;48.106;-1.696;2022-09-25T16:13:41;4.63;;;1.00;;
22967;SDS011;11650;48.106;-1.696;2022-09-25T16:18:47;5.53;;;1.10;;
22967;SDS011;11650;48.106;-1.696;2022-09-25T16:21:30;5.07;;;1.10;;
22967;SDS011;11650;48.106;-1.696;2022-09-25T16:24:06;4.70;;;1.10;;
22967;SDS011;11650;48.106;-1.696;2022-09-25T16:26:41;3.83;;;0.90;;
22967;SDS011;11650;48.106;-1.696;2022-09-25T16:31:37;4.27;;;1.30;;
22967;SDS011;11650;48.106;-1.696;2022-09-25T16:34:07;4.57;;;1.53;;
22967;SDS011;11650;48.106;-1.696;2022-09-25T16:36:42;2.93;;;1.00;;
22967;SDS011;11650;48.106;-1.696;2022-09-25T16:41:38;4.50;;;1.03;;
22967;SDS011;11650;48.106;-1.696;2022-09-25T16:44:14;5.40;;;1.20;;
22967;SDS011;11650;48.106;-1.696;2022-09-25T16:47:04;3.67;;;0.87;;
22967;SDS011;11650;48.106;-1.696;2022-09-25T16:49:41;2.33;;;0.80;;
22967;SDS011;11650;48.106;-1.696;2022-09-25T16:52:09;3.33;;;1.20;;
22967;SDS011;11650;48.106;-1.696;2022-09-25T16:54:44;2.97;;;0.80;;
22967;SDS011;11650;48.106;-1.696;2022-09-25T16:57:21;4.03;;;1.03;;
22967;SDS011;11650;48.106;-1.696;2022-09-25T16:59:48;4.70;;;1.10;;
22967;SDS011;11650;48.106;-1.696;2022-09-25T17:02:35;4.90;;;0.90;;
22967;SDS011;11650;48.106;-1.696;2022-09-25T17:05:06;4.93;;;1.20;;
22967;SDS011;11650;48.106;-1.696;2022-09-25T17:07:37;5.50;;;1.23;;
22967;SDS011;11650;48.106;-1.696;2022-09-25T17:10:03;5.00;;;1.30;;
22967;SDS011;11650;48.106;-1.696;2022-09-25T17:12:29;3.77;;;1.10;;
22967;SDS011;11650;48.106;-1.696;2022-09-25T17:14:55;4.63;;;1.03;;
22967;SDS011;11650;48.106;-1.696;2022-09-25T17:17:22;4.57;;;1.03;;
22967;SDS011;11650;48.106;-1.696;2022-09-25T17:19:48;4.07;;;1.23;;
22967;SDS011;11650;48.106;-1.696;2022-09-25T17:22:14;4.60;;;1.20;;
22967;SDS011;11650;48.106;-1.696;2022-09-25T17:24:40;3.83;;;1.13;;
22967;SDS011;11650;48.106;-1.696;2022-09-25T17:27:12;4.63;;;1.20;;
22967;SDS011;11650;48.106;-1.696;2022-09-25T17:29:40;5.97;;;1.10;;
22967;SDS011;11650;48.106;-1.696;2022-09-25T17:32:10;6.60;;;1.30;;
22967;SDS011;11650;48.106;-1.696;2022-09-25T17:34:42;4.77;;;0.90;;
22967;SDS011;11650;48.106;-1.696;2022-09-25T17:37:09;4.37;;;1.30;;
22967;SDS011;11650;48.106;-1.696;2022-09-25T17:39:36;4.97;;;1.00;;
22967;SDS011;11650;48.106;-1.696;2022-09-25T17:42:02;4.73;;;1.20;;
22967;SDS011;11650;48.106;-1.696;2022-09-25T17:44:28;3.67;;;0.90;;
22967;SDS011;11650;48.106;-1.696;2022-09-25T17:46:54;5.37;;;1.10;;
22967;SDS011;11650;48.106;-1.696;2022-09-25T17:49:21;6.97;;;1.20;;
22967;SDS011;11650;48.106;-1.696;2022-09-25T17:51:47;5.83;;;1.43;;
22967;SDS011;11650;48.106;-1.696;2022-09-25T17:54:13;5.67;;;1.30;;
22967;SDS011;11650;48.106;-1.696;2022-09-25T17:56:41;5.53;;;1.60;;
22967;SDS011;11650;48.106;-1.696;2022-09-25T17:59:09;5.20;;;1.20;;
22967;SDS011;11650;48.106;-1.696;2022-09-25T18:01:35;5.77;;;1.23;;
22967;SDS011;11650;48.106;-1.696;2022-09-25T18:04:06;6.60;;;1.63;;
22967;SDS011;11650;48.106;-1.696;2022-09-25T18:06:44;4.47;;;1.07;;
22967;SDS011;11650;48.106;-1.696;2022-09-25T18:09:09;7.80;;;1.30;;
22967;SDS011;11650;48.106;-1.696;2022-09-25T18:11:35;6.03;;;1.30;;
22967;SDS011;11650;48.106;-1.696;2022-09-25T18:14:01;8.70;;;1.70;;
22967;SDS011;11650;48.106;-1.696;2022-09-25T18:16:28;4.97;;;1.27;;
22967;SDS011;11650;48.106;-1.696;2022-09-25T18:18:57;6.23;;;1.70;;
22967;SDS011;11650;48.106;-1.696;2022-09-25T18:21:41;5.10;;;1.70;;
22967;SDS011;11650;48.106;-1.696;2022-09-25T18:24:25;11.60;;;2.10;;
22967;SDS011;11650;48.106;-1.696;2022-09-25T18:26:52;8.60;;;2.53;;
22967;SDS011;11650;48.106;-1.696;2022-09-25T18:29:19;6.67;;;2.07;;
22967;SDS011;11650;48.106;-1.696;2022-09-25T18:31:46;7.77;;;1.90;;
22967;SDS011;11650;48.106;-1.696;2022-09-25T18:34:12;8.57;;;2.03;;
22967;SDS011;11650;48.106;-1.696;2022-09-25T18:36:39;3.80;;;1.20;;
22967;SDS011;11650;48.106;-1.696;2022-09-25T18:39:04;7.73;;;1.77;;
22967;SDS011;11650;48.106;-1.696;2022-09-25T18:41:34;5.47;;;1.30;;
22967;SDS011;11650;48.106;-1.696;2022-09-25T18:44:00;8.20;;;1.60;;
22967;SDS011;11650;48.106;-1.696;2022-09-25T18:46:26;6.50;;;1.53;;
22967;SDS011;11650;48.106;-1.696;2022-09-25T18:48:52;4.20;;;1.40;;
22967;SDS011;11650;48.106;-1.696;2022-09-25T18:51:19;5.63;;;1.70;;
22967;SDS011;11650;48.106;-1.696;2022-09-25T18:53:48;6.37;;;2.50;;
22967;SDS011;11650;48.106;-1.696;2022-09-25T18:56:18;6.17;;;2.53;;
22967;SDS011;11650;48.106;-1.696;2022-09-25T18:58:45;8.23;;;2.20;;
22967;SDS011;11650;48.106;-1.696;2022-09-25T19:01:11;7.63;;;2.30;;
22967;SDS011;11650;48.106;-1.696;2022-09-25T19:03:37;6.60;;;2.10;;
22967;SDS011;11650;48.106;-1.696;2022-09-25T19:06:03;4.20;;;1.73;;
22967;SDS011;11650;48.106;-1.696;2022-09-25T19:08:29;6.73;;;1.83;;